Altona, NY

2:15 PM EDT on July 01, 2015 (GMT -0400)
Ellenburg Depot | | Change Station
CLOSE
Current Station
Personal Weather Station
Location: Ellenburg Depot, NY
Elevation: 1000 ft
Nearby Weather Stations

Elev 1000 ft 44.91 °N, 73.82 °W | Updated 6 seconds ago

Rain
Rain
67.0 °F
Feels Like 67.0 °F
N
0.0
Wind Variable Wind from SW
Gusts 1.0 mph

Today
High -- | Low -- °F
--% Chance of Precip.
Yesterday
High -- | Low -- °F
Precip. -- in
5:12 AM 8:44 PM
Full, 100% visible
Pressure 29.62 in
Visibility 3.0 miles
Clouds Few 900 ft
Mostly Cloudy 3300 ft
Overcast 7000 ft
Dew Point 64 °F
Humidity 90%
Rainfall 0.07 in
Snow Depth Not available.
UV 3 out of 12
Pollen .40 out of 12
Air Quality Not available.
Flu Activity Not available.
SPECI KPBG 011805Z AUTO 14004KT 3SM -RA BR FEW009 BKN033 OVC070 19/18 A2962 RMK AO2 LTG DSNT SE P0004 T01940183

More Conditions Fewer Conditions

Pressure 29.62 in
Visibility 3.0 miles
Clouds Few 900 ft
Mostly Cloudy 3300 ft
Overcast 7000 ft
Dew Point 64 °F
Humidity 90%
Rainfall 0.07 in
Snow Depth Not available.
UV 3 out of 12
Pollen .40 out of 12
Air Quality Not available.
Flu Activity Not available.
SPECI KPBG 011805Z AUTO 14004KT 3SM -RA BR FEW009 BKN033 OVC070 19/18 A2962 RMK AO2 LTG DSNT SE P0004 T01940183

More Conditions Fewer Conditions

10-Day Weather Forecast

×

Almanac

Astronomy

Jul. 01, 2015 Rise Set
Actual Time
Civil Twilight
Nautical Twilight
Astronomical Twilight
Moon
Length of Visible Light
Length of Day
Tomorrow will be .
, % of the Moon is Illuminated

Today's Extremes

State Highs State Lows

Community

WunderPhotos

Upload Photos

1,834,225 photos uploaded!

WunderBlogs® & News

Nearby

Air Quality

  Air Quality AQ Index Pollutant
Not available.

Snow Depth

Station Depth Elevation

Earthquake Activity

City Distance Mag. Time & Date
Minimum magnitude displayed is 2.5.

Coastal Water Temperatures

Place Temperature

Stations

Nearby Weather Stations

Station Location Temp. Windchill Dew Point Humidity Wind Precip. Elev Updated Type